createdAt,value
2024-01-22T00:00:44.309Z,103605.27
2024-01-22T00:03:33.101Z,103610.05
2024-01-22T00:06:01.575Z,103614.47
2024-01-22T00:08:29.820Z,103604.88
2024-01-22T00:10:58.075Z,103605.09
2024-01-22T00:13:26.353Z,103605.46
2024-01-22T00:15:54.580Z,103607.21
2024-01-22T00:18:22.966Z,103608.25
2024-01-22T00:20:51.662Z,103607.66
2024-01-22T00:23:19.935Z,103606.73
2024-01-22T00:25:48.170Z,103610.46
2024-01-22T00:28:16.395Z,103611.78
2024-01-22T00:30:44.640Z,103616.05
2024-01-22T00:33:13.623Z,103621.42
2024-01-22T00:35:41.976Z,103617.85
2024-01-22T00:38:11.522Z,103616.05
2024-01-22T00:40:39.893Z,103609.59
2024-01-22T00:43:08.317Z,103603.16
2024-01-22T00:45:39.499Z,103604.77
2024-01-22T00:48:08.945Z,103606.86
2024-01-22T00:50:37.334Z,103604.63
2024-01-22T00:53:05.706Z,103596.85
2024-01-22T00:55:33.925Z,103593.88
2024-01-22T00:58:02.147Z,103589.36
2024-01-22T01:00:30.377Z,103588.34
2024-01-22T01:02:58.617Z,103591.95
2024-01-22T01:05:27.064Z,103593.83
2024-01-22T01:07:55.536Z,103589.02
2024-01-22T01:10:23.769Z,103589.91
2024-01-22T01:12:51.969Z,103589.11
2024-01-22T01:15:22.359Z,103592.58
2024-01-22T01:17:50.717Z,103590.23
2024-01-22T01:20:19.232Z,103590.16
2024-01-22T01:22:47.459Z,103589.91
2024-01-22T01:25:15.982Z,103588.83
2024-01-22T01:27:44.240Z,103586.58
2024-01-22T01:30:12.874Z,103589.25
2024-01-22T01:32:41.355Z,103587.75
2024-01-22T01:35:09.874Z,103590.88
2024-01-22T01:37:38.031Z,103591.94
2024-01-22T01:40:06.909Z,103591.11
2024-01-22T01:42:35.132Z,103593.67
2024-01-22T01:45:03.580Z,103600.33
2024-01-22T01:47:31.890Z,103604.05
2024-01-22T01:50:00.493Z,103605.70
2024-01-22T01:52:28.816Z,103608.55
2024-01-22T01:54:58.574Z,103602.45
2024-01-22T01:57:27.599Z,103604.21
2024-01-22T01:59:57.816Z,103607.98
2024-01-22T02:02:26.689Z,103608.86
2024-01-22T02:04:55.337Z,103610.90
2024-01-22T02:07:23.550Z,103611.13
2024-01-22T02:09:53.527Z,103613.61
2024-01-22T02:12:21.922Z,103614.45
2024-01-22T02:14:50.282Z,103615.76
2024-01-22T02:17:18.838Z,103618.55
2024-01-22T02:19:47.318Z,103615.16
2024-01-22T02:22:15.594Z,103612.98
2024-01-22T02:24:44.543Z,103612.46
2024-01-22T02:27:13.223Z,103609.05
2024-01-22T02:29:41.996Z,103615.59
2024-01-22T02:32:10.337Z,103614.40
2024-01-22T02:34:39.168Z,103614.21
2024-01-22T02:37:07.713Z,103615.02
2024-01-22T02:39:37.532Z,103616.50
2024-01-22T02:42:06.055Z,103614.90
2024-01-22T02:44:37.495Z,103620.52
2024-01-22T02:47:06.322Z,103623.11
2024-01-22T02:49:36.529Z,103618.69
2024-01-22T02:52:05.808Z,103616.81
2024-01-22T02:54:34.089Z,103621.98
2024-01-22T02:57:02.999Z,103618.73
2024-01-22T02:59:31.540Z,103617.77
2024-01-22T03:01:59.748Z,103620.03
2024-01-22T03:04:28.434Z,103615.80
2024-01-22T03:06:58.199Z,103611.34
2024-01-22T03:09:26.687Z,103618.52
2024-01-22T03:11:55.097Z,103623.12
2024-01-22T03:14:23.361Z,103619.64
2024-01-22T03:16:51.782Z,103617.94
2024-01-22T03:19:20.127Z,103617.33
2024-01-22T03:21:48.521Z,103619.98
2024-01-22T03:24:17.232Z,103624.64
2024-01-22T03:26:45.677Z,103626.75
2024-01-22T03:29:14.384Z,103625.83
2024-01-22T03:31:42.606Z,103616.77
2024-01-22T03:34:11.086Z,103620.05
2024-01-22T03:36:39.444Z,103619.23
2024-01-22T03:39:10.235Z,103615.44
2024-01-22T03:41:39.231Z,103615.48
2024-01-22T03:44:07.715Z,103616.98
2024-01-22T03:46:36.241Z,103618.85
2024-01-22T03:49:04.771Z,103624.85
2024-01-22T03:51:33.173Z,103628.63
2024-01-22T03:54:01.411Z,103630.34
2024-01-22T03:56:29.731Z,103626.42
2024-01-22T03:58:58.141Z,103627.85
2024-01-22T04:01:26.359Z,103630.63
2024-01-22T04:03:55.025Z,103636.83
2024-01-22T04:06:23.441Z,103636.79
2024-01-22T04:08:51.737Z,103637.63
2024-01-22T04:11:19.946Z,103627.85
2024-01-22T04:13:48.165Z,103630.20
2024-01-22T04:16:16.592Z,103636.71
2024-01-22T04:18:45.296Z,103639.27
2024-01-22T04:21:14.258Z,103638.95
2024-01-22T04:23:42.858Z,103634.33
2024-01-22T04:26:11.085Z,103632.09
2024-01-22T04:28:39.413Z,103632.91
2024-01-22T04:31:08.316Z,103632.17
2024-01-22T04:33:36.801Z,103630.92
2024-01-22T04:36:05.595Z,103630.34
2024-01-22T04:38:34.280Z,103629.96
2024-01-22T04:41:02.699Z,103636.41
2024-01-22T04:43:30.915Z,103638.95
2024-01-22T04:45:59.149Z,103640.80
2024-01-22T04:48:28.118Z,103639.45
2024-01-22T04:50:56.493Z,103640.48
2024-01-22T04:53:25.012Z,103641.34
2024-01-22T04:55:53.229Z,103647.50
2024-01-22T04:58:21.441Z,103651.44
2024-01-22T05:00:49.685Z,103648.69
2024-01-22T05:03:17.943Z,103643.21
2024-01-22T05:05:46.604Z,103642.54
2024-01-22T05:08:15.029Z,103643.01
2024-01-22T05:10:43.249Z,103647.59
2024-01-22T05:13:11.565Z,103648.05
2024-01-22T05:15:40.288Z,103649.35
2024-01-22T05:18:08.778Z,103656.56
2024-01-22T05:20:37.266Z,103662.58
2024-01-22T05:23:05.554Z,103668.61
2024-01-22T05:25:33.776Z,103668.83
2024-01-22T05:28:01.994Z,103673.63
2024-01-22T05:30:30.250Z,103670.75
2024-01-22T05:32:58.700Z,103673.84
2024-01-22T05:35:27.078Z,103675.22
2024-01-22T05:37:55.269Z,103673.02
2024-01-22T05:40:23.492Z,103671.00
2024-01-22T05:42:51.717Z,103672.70
2024-01-22T05:45:20.247Z,103675.27
2024-01-22T05:47:48.917Z,103674.56
2024-01-22T05:50:17.384Z,103677.09
2024-01-22T05:52:45.595Z,103681.48
2024-01-22T05:55:17.541Z,103679.88
2024-01-22T05:57:48.744Z,103677.55
2024-01-22T06:00:20.376Z,103683.14
2024-01-22T06:02:49.118Z,103685.14
2024-01-22T06:05:17.850Z,103686.80
2024-01-22T06:07:46.084Z,103684.38
2024-01-22T06:10:14.316Z,103688.69
2024-01-22T06:12:42.806Z,103685.65
2024-01-22T06:15:11.086Z,103688.30
2024-01-22T06:17:39.422Z,103684.38
2024-01-22T06:20:10.580Z,103681.30
2024-01-22T06:22:39.095Z,103681.44
2024-01-22T06:25:08.439Z,103684.98
2024-01-22T06:27:37.141Z,103685.25
2024-01-22T06:30:06.813Z,103682.80
2024-01-22T06:32:35.158Z,103685.69
2024-01-22T06:35:03.609Z,103686.50
2024-01-22T06:37:32.128Z,103687.85
2024-01-22T06:40:02.381Z,103689.92
2024-01-22T06:42:37.547Z,103688.74
2024-01-22T06:45:09.822Z,103689.73
2024-01-22T06:47:38.972Z,103686.75
2024-01-22T06:50:07.889Z,103690.58
2024-01-22T06:52:37.898Z,103692.91
2024-01-22T06:55:07.324Z,103702.41
2024-01-22T06:57:35.451Z,103707.13
2024-01-22T07:00:09.117Z,103710.19
2024-01-22T07:02:42.995Z,103712.30
2024-01-22T07:05:14.795Z,103711.68
2024-01-22T07:07:43.679Z,103714.65
2024-01-22T07:10:12.028Z,103717.28
2024-01-22T07:12:43.031Z,103712.39
2024-01-22T07:15:14.493Z,103712.67
2024-01-22T07:17:44.568Z,103711.77
2024-01-22T07:20:17.074Z,103711.89
2024-01-22T07:22:48.768Z,103711.41
2024-01-22T07:25:18.746Z,103710.94
2024-01-22T07:27:47.658Z,103716.87
2024-01-22T07:30:16.583Z,103717.56
2024-01-22T07:32:46.263Z,103714.16
2024-01-22T07:35:16.161Z,103714.71
2024-01-22T07:37:48.683Z,103716.62
2024-01-22T07:40:19.126Z,103721.71
2024-01-22T07:42:47.772Z,103723.98
2024-01-22T07:45:17.498Z,103713.29
2024-01-22T07:47:46.215Z,103715.77
2024-01-22T07:50:16.491Z,103718.27
2024-01-22T07:52:47.391Z,103713.33
2024-01-22T07:55:19.538Z,103712.89
2024-01-22T07:57:48.336Z,103721.86
2024-01-22T08:00:17.734Z,103716.84
2024-01-22T08:02:46.494Z,103718.15
2024-01-22T08:05:15.792Z,103713.95
2024-01-22T08:07:46.078Z,103712.33
2024-01-22T08:10:15.191Z,103713.17
2024-01-22T08:12:43.895Z,103714.59
2024-01-22T08:15:16.793Z,103714.33
2024-01-22T08:17:48.298Z,103718.56
2024-01-22T08:20:19.853Z,103712.27
2024-01-22T08:22:49.073Z,103714.35
2024-01-22T08:25:21.281Z,103721.23
2024-01-22T08:27:49.956Z,103722.63
2024-01-22T08:30:19.396Z,103723.48
2024-01-22T08:32:48.441Z,103730.64
2024-01-22T08:35:20.621Z,103729.18
2024-01-22T08:37:54.187Z,103725.80
2024-01-22T08:40:24.267Z,103722.10
2024-01-22T08:42:55.577Z,103721.78
2024-01-22T08:45:27.124Z,103724.97
2024-01-22T08:47:55.351Z,103716.26
2024-01-22T08:50:23.960Z,103709.48
2024-01-22T08:52:56.038Z,103708.00
2024-01-22T08:55:24.906Z,103711.20
2024-01-22T08:57:55.512Z,103712.83
2024-01-22T09:00:24.916Z,103714.57
2024-01-22T09:02:53.602Z,103716.24
2024-01-22T09:05:22.536Z,103714.67
2024-01-22T09:07:50.982Z,103715.80
2024-01-22T09:10:19.720Z,103707.80
2024-01-22T09:12:50.290Z,103708.91
2024-01-22T09:15:21.424Z,103707.33
2024-01-22T09:17:50.168Z,103698.42
2024-01-22T09:20:19.411Z,103700.12
2024-01-22T09:22:47.730Z,103701.16
2024-01-22T09:25:16.048Z,103701.36
2024-01-22T09:27:44.371Z,103694.79
2024-01-22T09:30:16.639Z,103696.16
2024-01-22T09:32:47.230Z,103686.98
2024-01-22T09:35:16.222Z,103686.30
2024-01-22T09:37:44.477Z,103684.16
2024-01-22T09:40:19.589Z,103686.88
2024-01-22T09:42:52.828Z,103683.49
2024-01-22T09:45:21.499Z,103678.89
2024-01-22T09:47:50.350Z,103672.54
2024-01-22T09:50:18.751Z,103672.75
2024-01-22T09:52:52.770Z,103670.23
2024-01-22T09:55:25.935Z,103670.00
2024-01-22T09:57:55.192Z,103670.55
2024-01-22T10:00:27.987Z,103667.04
2024-01-22T10:02:57.994Z,103664.30
2024-01-22T10:05:26.470Z,103661.61
2024-01-22T10:07:54.836Z,103660.00
2024-01-22T10:10:23.151Z,103655.33
2024-01-22T10:13:06.034Z,103651.17
2024-01-22T10:15:36.312Z,103650.77
2024-01-22T10:18:19.206Z,103649.20
2024-01-22T10:20:48.805Z,103652.61
2024-01-22T10:23:19.877Z,103656.31
2024-01-22T10:25:48.114Z,103661.29
2024-01-22T10:28:22.493Z,103659.23
2024-01-22T10:31:04.601Z,103652.86
2024-01-22T10:33:33.558Z,103654.35
2024-01-22T10:36:21.015Z,103656.45
2024-01-22T10:39:03.125Z,103650.63
2024-01-22T10:41:31.415Z,103644.30
2024-01-22T10:44:00.164Z,103644.11
2024-01-22T10:46:28.655Z,103645.50
2024-01-22T10:48:58.929Z,103642.76
2024-01-22T10:51:28.612Z,103639.86
2024-01-22T10:53:57.021Z,103643.61
2024-01-22T10:56:29.638Z,103637.45
2024-01-22T10:59:04.412Z,103631.41
2024-01-22T11:01:37.651Z,103622.82
2024-01-22T11:04:10.028Z,103629.80
2024-01-22T11:06:43.414Z,103623.48
2024-01-22T11:09:14.038Z,103626.19
2024-01-22T11:11:46.941Z,103619.41
2024-01-22T11:14:15.312Z,103621.02
2024-01-22T11:16:43.620Z,103623.79
2024-01-22T11:19:24.462Z,103621.47
2024-01-22T11:21:55.952Z,103617.85
2024-01-22T11:24:26.097Z,103609.52
2024-01-22T11:26:57.815Z,103609.15
2024-01-22T11:29:27.804Z,103607.29
2024-01-22T11:32:00.260Z,103608.29
2024-01-22T11:34:42.456Z,103599.11
2024-01-22T11:37:13.006Z,103599.48
2024-01-22T11:39:44.370Z,103603.14
2024-01-22T11:42:24.760Z,103596.65
2024-01-22T11:44:53.853Z,103591.66
2024-01-22T11:47:24.460Z,103591.17
2024-01-22T11:50:02.898Z,103588.17
2024-01-22T11:52:32.898Z,103589.16
2024-01-22T11:55:05.937Z,103582.55
2024-01-22T11:57:39.233Z,103583.30
2024-01-22T12:00:11.712Z,103576.42
2024-01-22T12:02:43.372Z,103573.27
2024-01-22T12:05:20.171Z,103578.24
2024-01-22T12:07:53.690Z,103575.88
2024-01-22T12:10:30.209Z,103576.56
2024-01-22T12:13:06.474Z,103574.54
2024-01-22T12:15:35.289Z,103569.33
2024-01-22T12:18:04.566Z,103567.85
2024-01-22T12:20:33.943Z,103562.19
2024-01-22T12:23:06.444Z,103562.45
2024-01-22T12:25:36.689Z,103564.67
2024-01-22T12:28:08.070Z,103563.13
2024-01-22T12:30:36.837Z,103564.02
2024-01-22T12:33:05.714Z,103567.96
2024-01-22T12:35:34.325Z,103570.08
2024-01-22T12:38:11.638Z,103572.16
2024-01-22T12:40:42.245Z,103572.67
2024-01-22T12:43:11.231Z,103567.54
2024-01-22T12:45:39.513Z,103564.20
2024-01-22T12:48:08.485Z,103568.66
2024-01-22T12:50:37.004Z,103571.12
2024-01-22T12:53:06.014Z,103569.58
2024-01-22T12:55:36.243Z,103563.11
2024-01-22T12:58:06.153Z,103561.84
2024-01-22T13:00:34.652Z,103549.83
2024-01-22T13:03:03.184Z,103547.85
2024-01-22T13:05:35.779Z,103545.77
2024-01-22T13:08:05.880Z,103548.05
2024-01-22T13:10:34.896Z,103546.66
2024-01-22T13:13:03.124Z,103543.69
2024-01-22T13:15:32.430Z,103546.50
2024-01-22T13:18:01.974Z,103550.05
2024-01-22T13:20:30.299Z,103549.85
2024-01-22T13:22:58.812Z,103552.46
2024-01-22T13:25:30.046Z,103545.88
2024-01-22T13:27:59.276Z,103543.26
2024-01-22T13:30:28.320Z,103540.73
2024-01-22T13:32:57.541Z,103542.24
2024-01-22T13:35:26.364Z,103538.02
2024-01-22T13:37:54.858Z,103531.41
2024-01-22T13:40:23.084Z,103523.91
2024-01-22T13:42:51.305Z,103513.13
2024-01-22T13:45:19.560Z,103515.99
2024-01-22T13:47:47.953Z,103511.48
2024-01-22T13:50:16.855Z,103506.27
2024-01-22T13:52:45.183Z,103504.84
2024-01-22T13:55:13.910Z,103505.70
2024-01-22T13:57:42.334Z,103495.31
2024-01-22T14:00:11.314Z,103495.16
2024-01-22T14:02:39.677Z,103495.58
2024-01-22T14:05:08.103Z,103496.71
2024-01-22T14:07:37.120Z,103504.88
2024-01-22T14:10:06.077Z,103510.63
2024-01-22T14:12:34.381Z,103510.85
2024-01-22T14:15:02.968Z,103507.80
2024-01-22T14:17:31.572Z,103513.63
2024-01-22T14:19:59.923Z,103516.96
2024-01-22T14:22:28.135Z,103509.14
2024-01-22T14:24:57.062Z,103505.12
2024-01-22T14:27:25.395Z,103501.90
2024-01-22T14:29:53.956Z,103493.08
2024-01-22T14:32:22.832Z,103485.25
2024-01-22T14:34:51.072Z,103488.00
2024-01-22T14:37:19.468Z,103488.66
2024-01-22T14:39:47.986Z,103493.84
2024-01-22T14:42:16.347Z,103490.70
2024-01-22T14:44:44.636Z,103488.86
2024-01-22T14:47:12.850Z,103485.43
2024-01-22T14:49:41.558Z,103485.65
2024-01-22T14:52:09.894Z,103482.87
2024-01-22T14:54:38.276Z,103477.97
2024-01-22T14:57:06.535Z,103480.27
2024-01-22T14:59:36.940Z,103480.55
2024-01-22T15:02:05.193Z,103484.70
2024-01-22T15:04:33.544Z,103483.79
2024-01-22T15:07:01.934Z,103486.11
2024-01-22T15:09:30.307Z,103488.10
2024-01-22T15:12:01.499Z,103493.13
2024-01-22T15:14:29.794Z,103494.77
2024-01-22T15:16:59.325Z,103489.34
2024-01-22T15:19:27.907Z,103490.18
2024-01-22T15:21:58.881Z,103498.20
2024-01-22T15:24:28.334Z,103494.02
2024-01-22T15:26:56.938Z,103492.80
2024-01-22T15:29:26.039Z,103486.15
2024-01-22T15:31:55.277Z,103483.74
2024-01-22T15:34:23.960Z,103492.42
2024-01-22T15:36:52.405Z,103488.71
2024-01-22T15:39:23.189Z,103489.65
2024-01-22T15:41:51.918Z,103498.56
2024-01-22T15:44:20.182Z,103506.91
2024-01-22T15:46:48.771Z,103510.48
2024-01-22T15:49:17.463Z,103513.11
2024-01-22T15:51:47.154Z,103514.98
2024-01-22T15:54:16.512Z,103518.48
2024-01-22T15:56:44.734Z,103516.40
2024-01-22T15:59:13.033Z,103512.44
2024-01-22T16:01:41.265Z,103513.77
2024-01-22T16:04:09.875Z,103509.95
2024-01-22T16:06:46.608Z,103503.31
2024-01-22T16:09:21.616Z,103502.34
2024-01-22T16:11:50.133Z,103498.18
2024-01-22T16:14:18.596Z,103497.30
2024-01-22T16:16:46.917Z,103496.13
2024-01-22T16:19:18.687Z,103498.74
2024-01-22T16:21:56.662Z,103490.30
2024-01-22T16:24:25.122Z,103487.80
2024-01-22T16:26:53.554Z,103487.09
2024-01-22T16:29:22.169Z,103483.27
2024-01-22T16:31:50.873Z,103487.52
2024-01-22T16:34:19.542Z,103485.42
2024-01-22T16:36:50.102Z,103487.54
2024-01-22T16:39:20.062Z,103493.22
2024-01-22T16:41:49.579Z,103493.39
2024-01-22T16:44:18.139Z,103496.34
2024-01-22T16:46:46.431Z,103498.36
2024-01-22T16:49:17.364Z,103502.30
2024-01-22T16:51:47.289Z,103503.67
2024-01-22T16:54:15.958Z,103501.90
2024-01-22T16:56:44.386Z,103498.48
2024-01-22T16:59:12.655Z,103498.17
2024-01-22T17:01:40.872Z,103499.70
2024-01-22T17:04:09.258Z,103495.98
2024-01-22T17:06:37.723Z,103494.98
2024-01-22T17:09:06.582Z,103497.10
2024-01-22T17:11:35.955Z,103491.84
2024-01-22T17:14:04.783Z,103486.80
2024-01-22T17:16:33.101Z,103484.71
2024-01-22T17:19:01.361Z,103484.27
2024-01-22T17:21:29.911Z,103485.16
2024-01-22T17:23:58.376Z,103484.64
2024-01-22T17:26:26.680Z,103482.78
2024-01-22T17:28:55.047Z,103483.79
2024-01-22T17:31:23.626Z,103480.71
2024-01-22T17:33:52.204Z,103479.13
2024-01-22T17:36:20.997Z,103476.00
2024-01-22T17:38:49.710Z,103475.44
2024-01-22T17:41:18.009Z,103474.27
2024-01-22T17:43:47.332Z,103470.02
2024-01-22T17:46:15.669Z,103465.24
2024-01-22T17:48:44.037Z,103460.61
2024-01-22T17:51:12.411Z,103455.10
2024-01-22T17:53:40.617Z,103448.36
2024-01-22T17:56:08.983Z,103443.17
2024-01-22T17:58:37.159Z,103439.23
2024-01-22T18:01:05.703Z,103439.27
2024-01-22T18:03:34.249Z,103435.84
2024-01-22T18:06:02.557Z,103435.51
2024-01-22T18:08:30.950Z,103436.02
2024-01-22T18:10:59.374Z,103433.30
2024-01-22T18:13:27.785Z,103431.98
2024-01-22T18:15:58.117Z,103437.35
2024-01-22T18:18:26.603Z,103443.38
2024-01-22T18:20:55.591Z,103439.11
2024-01-22T18:23:25.790Z,103433.09
2024-01-22T18:25:54.214Z,103425.70
2024-01-22T18:28:22.426Z,103421.24
2024-01-22T18:30:51.774Z,103410.27
2024-01-22T18:33:20.727Z,103402.70
2024-01-22T18:35:49.123Z,103395.38
2024-01-22T18:38:17.315Z,103391.45
2024-01-22T18:40:45.638Z,103384.83
2024-01-22T18:43:14.166Z,103376.64
2024-01-22T18:45:42.920Z,103377.98
2024-01-22T18:48:11.529Z,103380.36
2024-01-22T18:50:40.111Z,103378.13
2024-01-22T18:53:08.445Z,103372.61
2024-01-22T18:55:38.289Z,103368.08
2024-01-22T18:58:06.489Z,103355.70
2024-01-22T19:00:35.066Z,103354.41
2024-01-22T19:03:04.370Z,103346.02
2024-01-22T19:05:33.295Z,103338.98
2024-01-22T19:08:01.578Z,103332.15
2024-01-22T19:10:29.795Z,103330.02
2024-01-22T19:12:58.015Z,103333.02
2024-01-22T19:15:26.396Z,103338.77
2024-01-22T19:17:55.236Z,103338.73
2024-01-22T19:20:28.089Z,103337.02
2024-01-22T19:22:58.061Z,103340.02
2024-01-22T19:25:26.339Z,103341.20
2024-01-22T19:27:54.564Z,103336.91
2024-01-22T19:30:22.835Z,103335.14
2024-01-22T19:32:51.207Z,103331.92
2024-01-22T19:35:21.540Z,103333.80
2024-01-22T19:37:49.848Z,103329.68
2024-01-22T19:40:18.498Z,103329.35
2024-01-22T19:42:46.697Z,103325.95
2024-01-22T19:45:15.055Z,103319.34
2024-01-22T19:47:43.371Z,103325.18
2024-01-22T19:50:11.940Z,103320.55
2024-01-22T19:52:40.175Z,103324.65
2024-01-22T19:55:08.902Z,103321.22
2024-01-22T19:57:37.169Z,103321.89
2024-01-22T20:00:06.665Z,103322.56
2024-01-22T20:02:41.358Z,103323.69
2024-01-22T20:05:09.734Z,103325.66
2024-01-22T20:07:37.931Z,103326.27
2024-01-22T20:10:06.756Z,103319.21
2024-01-22T20:12:35.912Z,103311.83
2024-01-22T20:15:04.623Z,103304.95
2024-01-22T20:17:33.083Z,103300.15
2024-01-22T20:20:01.771Z,103296.39
2024-01-22T20:22:30.060Z,103298.77
2024-01-22T20:24:58.333Z,103300.41
2024-01-22T20:27:26.703Z,103299.52
2024-01-22T20:29:55.494Z,103296.42
2024-01-22T20:32:23.845Z,103298.00
2024-01-22T20:34:52.087Z,103294.36
2024-01-22T20:37:20.528Z,103290.89
2024-01-22T20:39:48.803Z,103292.40
2024-01-22T20:42:20.373Z,103288.09
2024-01-22T20:44:48.917Z,103289.83
2024-01-22T20:47:17.393Z,103287.48
2024-01-22T20:49:45.770Z,103282.34
2024-01-22T20:52:14.216Z,103278.23
2024-01-22T20:54:43.041Z,103273.65
2024-01-22T20:57:11.932Z,103270.30
2024-01-22T20:59:40.194Z,103270.65
2024-01-22T21:02:08.607Z,103269.66
2024-01-22T21:04:37.218Z,103267.33
2024-01-22T21:07:06.268Z,103266.98
2024-01-22T21:09:34.725Z,103258.30
2024-01-22T21:12:03.263Z,103256.95
2024-01-22T21:14:31.910Z,103254.72
2024-01-22T21:17:00.631Z,103254.99
2024-01-22T21:19:29.049Z,103257.50
2024-01-22T21:21:57.517Z,103257.32
2024-01-22T21:24:26.062Z,103258.11
2024-01-22T21:26:54.697Z,103260.33
2024-01-22T21:29:23.452Z,103259.10
2024-01-22T21:31:51.672Z,103253.95
2024-01-22T21:34:20.061Z,103250.00
2024-01-22T21:36:50.226Z,103251.08
2024-01-22T21:39:18.504Z,103246.64
2024-01-22T21:41:47.362Z,103242.39
2024-01-22T21:44:15.597Z,103238.46
2024-01-22T21:46:45.326Z,103237.98
2024-01-22T21:49:13.770Z,103235.46
2024-01-22T21:51:42.770Z,103230.81
2024-01-22T21:54:11.788Z,103229.94
2024-01-22T21:56:40.242Z,103230.44
2024-01-22T21:59:10.938Z,103225.07
2024-01-22T22:01:39.604Z,103223.63
2024-01-22T22:04:07.931Z,103224.98
2024-01-22T22:06:36.525Z,103218.23
2024-01-22T22:09:04.954Z,103209.04
2024-01-22T22:11:33.655Z,103205.34
2024-01-22T22:14:03.607Z,103197.79
2024-01-22T22:16:32.575Z,103196.13
2024-01-22T22:19:01.505Z,103191.64
2024-01-22T22:21:30.037Z,103189.35
2024-01-22T22:24:01.124Z,103183.57
2024-01-22T22:26:29.470Z,103182.70
2024-01-22T22:28:57.685Z,103180.42
2024-01-22T22:31:27.316Z,103180.31
2024-01-22T22:33:55.625Z,103167.64
2024-01-22T22:36:24.000Z,103166.08
2024-01-22T22:38:52.853Z,103166.05
2024-01-22T22:41:21.096Z,103164.31
2024-01-22T22:43:49.420Z,103164.13
2024-01-22T22:46:17.738Z,103162.84
2024-01-22T22:48:46.675Z,103160.52
2024-01-22T22:51:15.212Z,103158.58
2024-01-22T22:53:43.826Z,103155.98
2024-01-22T22:56:12.023Z,103150.13
2024-01-22T22:58:40.255Z,103147.73
2024-01-22T23:01:11.297Z,103143.77
2024-01-22T23:03:39.806Z,103144.70
2024-01-22T23:06:09.395Z,103134.34
2024-01-22T23:08:37.743Z,103127.21
2024-01-22T23:11:05.967Z,103130.07
2024-01-22T23:13:34.182Z,103125.49
2024-01-22T23:16:02.416Z,103125.52
2024-01-22T23:18:30.895Z,103129.15
2024-01-22T23:20:59.282Z,103121.73
2024-01-22T23:23:29.767Z,103113.64
2024-01-22T23:25:57.999Z,103109.44
2024-01-22T23:28:26.609Z,103112.41
2024-01-22T23:30:54.836Z,103108.44
2024-01-22T23:33:23.145Z,103102.40
2024-01-22T23:35:52.103Z,103097.79
2024-01-22T23:38:20.494Z,103093.98
2024-01-22T23:40:48.728Z,103089.04
2024-01-22T23:43:16.942Z,103083.80
2024-01-22T23:45:46.382Z,103086.94
2024-01-22T23:48:14.796Z,103089.38
2024-01-22T23:50:43.406Z,103087.33
2024-01-22T23:53:11.827Z,103082.76
2024-01-22T23:55:40.347Z,103079.61
2024-01-22T23:58:10.513Z,103073.92
